createdAt,value
2023-04-20T00:00:57.941Z,6.80
2023-04-20T00:03:27.248Z,6.80
2023-04-20T00:05:55.202Z,6.80
2023-04-20T00:08:22.988Z,6.70
2023-04-20T00:10:50.874Z,6.70
2023-04-20T00:13:18.685Z,6.60
2023-04-20T00:15:46.563Z,6.60
2023-04-20T00:18:15.727Z,6.60
2023-04-20T00:20:43.761Z,6.70
2023-04-20T00:23:11.514Z,6.70
2023-04-20T00:25:39.299Z,6.70
2023-04-20T00:28:07.087Z,6.70
2023-04-20T00:30:34.894Z,6.70
2023-04-20T00:33:04.136Z,6.60
2023-04-20T00:35:33.378Z,6.50
2023-04-20T00:38:01.147Z,6.60
2023-04-20T00:40:29.058Z,6.60
2023-04-20T00:42:57.068Z,6.60
2023-04-20T00:45:25.010Z,6.60
2023-04-20T00:47:52.784Z,6.50
2023-04-20T00:50:20.676Z,6.60
2023-04-20T00:52:49.934Z,6.30
2023-04-20T00:55:17.785Z,6.30
2023-04-20T00:57:45.773Z,6.00
2023-04-20T01:00:14.371Z,6.30
2023-04-20T01:02:42.361Z,6.50
2023-04-20T01:05:10.520Z,6.40
2023-04-20T01:07:38.522Z,6.40
2023-04-20T01:10:09.357Z,6.00
2023-04-20T01:12:37.561Z,5.90
2023-04-20T01:15:06.643Z,6.00
2023-04-20T01:17:36.617Z,6.00
2023-04-20T01:20:07.796Z,5.90
2023-04-20T01:22:44.949Z,5.50
2023-04-20T01:25:12.732Z,6.00
2023-04-20T01:27:40.474Z,5.50
2023-04-20T01:30:09.392Z,5.50
2023-04-20T01:32:37.225Z,5.70
2023-04-20T01:35:06.009Z,6.00
2023-04-20T01:37:33.892Z,6.10
2023-04-20T01:40:03.388Z,6.10
2023-04-20T01:42:31.188Z,5.90
2023-04-20T01:44:59.540Z,6.20
2023-04-20T01:47:27.414Z,6.20
2023-04-20T01:49:55.199Z,6.20
2023-04-20T01:52:22.943Z,5.90
2023-04-20T01:54:50.799Z,5.40
2023-04-20T01:57:19.880Z,5.50
2023-04-20T01:59:47.615Z,5.10
2023-04-20T02:02:15.483Z,5.60
2023-04-20T02:04:43.307Z,5.80
2023-04-20T02:07:11.034Z,6.00
2023-04-20T02:09:38.779Z,6.10
2023-04-20T02:12:07.218Z,5.70
2023-04-20T02:14:36.352Z,5.60
2023-04-20T02:17:04.334Z,5.30
2023-04-20T02:19:32.082Z,5.90
2023-04-20T02:21:59.856Z,5.60
2023-04-20T02:24:27.615Z,6.10
2023-04-20T02:26:55.877Z,6.20
2023-04-20T02:29:23.751Z,5.60
2023-04-20T02:31:52.891Z,5.50
2023-04-20T02:34:20.827Z,5.40
2023-04-20T02:36:49.382Z,5.60
2023-04-20T02:39:17.376Z,5.60
2023-04-20T02:41:45.468Z,6.00
2023-04-20T02:44:13.261Z,6.10
2023-04-20T02:46:41.393Z,6.20
2023-04-20T02:49:10.481Z,5.50
2023-04-20T02:51:38.263Z,5.50
2023-04-20T02:54:06.364Z,5.80
2023-04-20T02:56:34.151Z,5.70
2023-04-20T02:59:01.987Z,6.10
2023-04-20T03:01:29.959Z,5.10
2023-04-20T03:03:57.863Z,5.10
2023-04-20T03:06:27.790Z,5.50
2023-04-20T03:08:56.342Z,5.70
2023-04-20T03:11:24.132Z,5.50
2023-04-20T03:13:51.888Z,5.50
2023-04-20T03:16:20.133Z,5.90
2023-04-20T03:18:48.067Z,5.50
2023-04-20T03:21:16.373Z,5.90
2023-04-20T03:23:45.500Z,5.80
2023-04-20T03:26:13.834Z,5.80
2023-04-20T03:28:42.738Z,5.70
2023-04-20T03:31:10.586Z,5.20
2023-04-20T03:33:38.385Z,5.10
2023-04-20T03:36:06.869Z,4.60
2023-04-20T03:38:34.739Z,5.00
2023-04-20T03:41:04.679Z,5.30
2023-04-20T03:43:32.501Z,4.90
2023-04-20T03:46:00.338Z,4.70
2023-04-20T03:48:28.718Z,5.10
2023-04-20T03:50:56.448Z,5.00
2023-04-20T03:53:24.213Z,4.70
2023-04-20T03:55:52.018Z,5.00
2023-04-20T03:58:21.566Z,4.60
2023-04-20T04:00:49.327Z,4.70
2023-04-20T04:03:17.301Z,4.60
2023-04-20T04:05:45.277Z,4.30
2023-04-20T04:08:13.023Z,5.00
2023-04-20T04:10:40.808Z,4.60
2023-04-20T04:13:10.513Z,4.10
2023-04-20T04:15:39.727Z,4.20
2023-04-20T04:18:07.537Z,4.60
2023-04-20T04:20:35.486Z,4.50
2023-04-20T04:23:03.320Z,4.60
2023-04-20T04:25:31.070Z,4.30
2023-04-20T04:27:58.941Z,4.30
2023-04-20T04:30:27.446Z,4.60
2023-04-20T04:32:56.620Z,4.70
2023-04-20T04:35:24.580Z,4.70
2023-04-20T04:37:52.588Z,4.30
2023-04-20T04:40:20.600Z,4.30
2023-04-20T04:42:48.675Z,5.00
2023-04-20T04:45:16.519Z,4.80
2023-04-20T04:47:44.670Z,4.10
2023-04-20T04:50:14.440Z,4.30
2023-04-20T04:52:42.178Z,4.60
2023-04-20T04:55:10.221Z,4.70
2023-04-20T04:57:38.416Z,4.40
2023-04-20T05:00:09.409Z,4.50
2023-04-20T05:02:37.347Z,3.90
2023-04-20T05:05:08.102Z,4.10
2023-04-20T05:07:39.919Z,4.20
2023-04-20T05:10:09.105Z,4.20
2023-04-20T05:12:37.049Z,4.60
2023-04-20T05:15:05.568Z,4.30
2023-04-20T05:17:33.386Z,4.60
2023-04-20T05:20:01.201Z,4.20
2023-04-20T05:22:28.985Z,4.10
2023-04-20T05:24:58.113Z,4.10
2023-04-20T05:27:25.891Z,4.30
2023-04-20T05:29:53.654Z,4.60
2023-04-20T05:32:21.473Z,4.30
2023-04-20T05:34:49.214Z,4.30
2023-04-20T05:37:17.159Z,4.10
2023-04-20T05:39:44.953Z,4.00
2023-04-20T05:42:14.110Z,4.10
2023-04-20T05:44:43.708Z,4.10
2023-04-20T05:47:11.504Z,4.30
2023-04-20T05:49:39.383Z,4.00
2023-04-20T05:52:07.368Z,4.00
2023-04-20T05:54:35.178Z,4.40
2023-04-20T05:57:04.930Z,4.10
2023-04-20T05:59:34.161Z,4.50
2023-04-20T06:02:02.380Z,4.50
2023-04-20T06:04:30.602Z,4.60
2023-04-20T06:07:00.016Z,4.40
2023-04-20T06:09:28.028Z,4.10
2023-04-20T06:11:55.793Z,4.50
2023-04-20T06:14:23.565Z,4.20
2023-04-20T06:16:52.684Z,4.30
2023-04-20T06:19:20.444Z,4.10
2023-04-20T06:21:48.255Z,4.00
2023-04-20T06:24:16.226Z,4.30
2023-04-20T06:26:44.047Z,4.30
2023-04-20T06:29:11.851Z,4.40
2023-04-20T06:31:39.617Z,4.20
2023-04-20T06:34:08.755Z,4.30
2023-04-20T06:36:36.516Z,4.30
2023-04-20T06:39:04.758Z,4.20
2023-04-20T06:41:32.519Z,4.20
2023-04-20T06:44:00.640Z,4.00
2023-04-20T06:46:28.421Z,4.50
2023-04-20T06:48:56.295Z,4.40
2023-04-20T06:51:26.647Z,4.70
2023-04-20T06:53:54.463Z,4.20
2023-04-20T06:56:22.408Z,4.20
2023-04-20T06:58:50.176Z,4.50
2023-04-20T07:01:18.158Z,4.50
2023-04-20T07:03:46.816Z,4.60
2023-04-20T07:06:16.826Z,4.40
2023-04-20T07:08:45.927Z,4.30
2023-04-20T07:11:13.705Z,4.20
2023-04-20T07:13:41.435Z,4.70
2023-04-20T07:16:10.116Z,4.60
2023-04-20T07:18:37.936Z,4.40
2023-04-20T07:21:05.794Z,4.20
2023-04-20T07:23:33.570Z,4.20
2023-04-20T07:26:02.914Z,4.30
2023-04-20T07:28:30.702Z,4.40
2023-04-20T07:30:59.330Z,4.30
2023-04-20T07:33:27.657Z,4.30
2023-04-20T07:35:55.434Z,4.20
2023-04-20T07:38:23.429Z,4.20
2023-04-20T07:40:51.158Z,4.20
2023-04-20T07:43:20.484Z,4.50
2023-04-20T07:45:48.642Z,4.20
2023-04-20T07:48:16.431Z,4.00
2023-04-20T07:50:44.488Z,4.20
2023-04-20T07:53:12.223Z,3.90
2023-04-20T07:55:40.006Z,4.10
2023-04-20T07:58:07.769Z,4.00
2023-04-20T08:00:36.917Z,4.00
2023-04-20T08:03:05.834Z,4.00
2023-04-20T08:05:33.862Z,4.00
2023-04-20T08:08:01.651Z,4.20
2023-04-20T08:10:29.466Z,4.20
2023-04-20T08:12:57.242Z,4.40
2023-04-20T08:15:25.030Z,4.40
2023-04-20T08:17:54.201Z,4.20
2023-04-20T08:20:22.101Z,4.40
2023-04-20T08:22:50.592Z,4.20
2023-04-20T08:25:18.714Z,4.30
2023-04-20T08:27:46.521Z,4.50
2023-04-20T08:30:14.469Z,4.50
2023-04-20T08:32:42.233Z,4.50
2023-04-20T08:35:11.384Z,4.30
2023-04-20T08:37:39.262Z,4.30
2023-04-20T08:40:08.374Z,4.30
2023-04-20T08:42:37.073Z,4.50
2023-04-20T08:45:05.216Z,4.60
2023-04-20T08:47:34.909Z,4.40
2023-04-20T08:50:05.251Z,4.30
2023-04-20T08:52:35.591Z,4.40
2023-04-20T08:55:04.183Z,4.40
2023-04-20T08:57:31.955Z,4.50
2023-04-20T08:59:59.724Z,4.80
2023-04-20T09:02:27.672Z,4.80
2023-04-20T09:05:05.695Z,4.80
2023-04-20T09:07:36.127Z,4.80
2023-04-20T09:10:04.671Z,4.80
2023-04-20T09:12:42.539Z,4.80
2023-04-20T09:15:11.432Z,4.80
2023-04-20T09:17:41.346Z,4.80
2023-04-20T09:20:11.118Z,4.70
2023-04-20T09:22:42.754Z,4.90
2023-04-20T09:25:14.899Z,4.80
2023-04-20T09:27:42.739Z,4.80
2023-04-20T09:30:11.367Z,4.60
2023-04-20T09:32:39.235Z,4.70
2023-04-20T09:35:08.500Z,4.70
2023-04-20T09:37:36.291Z,4.80
2023-04-20T09:40:07.439Z,4.70
2023-04-20T09:42:39.667Z,4.70
2023-04-20T09:45:08.956Z,4.70
2023-04-20T09:47:41.679Z,4.60
2023-04-20T09:50:24.629Z,4.90
2023-04-20T09:52:55.410Z,4.70
2023-04-20T09:55:26.265Z,4.90
2023-04-20T09:57:55.331Z,5.10
2023-04-20T10:00:23.942Z,4.90
2023-04-20T10:02:52.373Z,4.90
2023-04-20T10:05:20.749Z,4.90
2023-04-20T10:07:48.482Z,4.90
2023-04-20T10:10:17.237Z,5.00
2023-04-20T10:12:50.834Z,4.90
2023-04-20T10:15:19.559Z,5.30
2023-04-20T10:17:47.534Z,5.30
2023-04-20T10:20:23.128Z,5.40
2023-04-20T10:22:52.649Z,5.50
2023-04-20T10:25:23.334Z,5.60
2023-04-20T10:27:57.441Z,5.70
2023-04-20T10:30:26.508Z,5.60
2023-04-20T10:33:06.929Z,5.50
2023-04-20T10:35:47.685Z,5.50
2023-04-20T10:38:16.064Z,5.60
2023-04-20T10:40:44.056Z,5.40
2023-04-20T10:43:23.005Z,5.50
2023-04-20T10:45:51.420Z,5.50
2023-04-20T10:48:19.275Z,5.60
2023-04-20T10:50:47.153Z,5.60
2023-04-20T10:53:22.728Z,5.60
2023-04-20T10:55:59.872Z,5.60
2023-04-20T10:58:29.387Z,5.50
2023-04-20T11:01:02.398Z,5.50
2023-04-20T11:03:32.674Z,5.80
2023-04-20T11:06:03.455Z,5.70
2023-04-20T11:08:39.459Z,5.70
2023-04-20T11:11:18.138Z,6.00
2023-04-20T11:13:47.854Z,6.20
2023-04-20T11:16:17.666Z,6.20
2023-04-20T11:18:52.964Z,6.10
2023-04-20T11:21:21.967Z,6.10
2023-04-20T11:23:50.299Z,6.10
2023-04-20T11:26:18.692Z,6.00
2023-04-20T11:28:56.486Z,6.40
2023-04-20T11:31:26.243Z,6.60
2023-04-20T11:33:54.031Z,6.30
2023-04-20T11:36:23.328Z,6.30
2023-04-20T11:38:51.798Z,6.00
2023-04-20T11:41:19.809Z,5.80
2023-04-20T11:43:48.897Z,6.20
2023-04-20T11:46:20.058Z,6.30
2023-04-20T11:48:49.016Z,6.40
2023-04-20T11:51:16.994Z,6.20
2023-04-20T11:53:45.076Z,6.40
2023-04-20T11:56:12.839Z,6.40
2023-04-20T11:58:40.596Z,6.40
2023-04-20T12:01:08.333Z,6.40
2023-04-20T12:03:37.903Z,6.40
2023-04-20T12:06:07.330Z,6.40
2023-04-20T12:08:35.112Z,6.60
2023-04-20T12:11:02.884Z,6.50
2023-04-20T12:13:30.745Z,6.60
2023-04-20T12:15:58.549Z,6.70
2023-04-20T12:18:26.346Z,6.80
2023-04-20T12:20:55.464Z,6.80
2023-04-20T12:23:23.285Z,6.80
2023-04-20T12:25:51.388Z,6.80
2023-04-20T12:28:19.180Z,6.90
2023-04-20T12:30:47.013Z,7.10
2023-04-20T12:33:14.897Z,7.10
2023-04-20T12:35:42.680Z,7.00
2023-04-20T12:38:14.455Z,7.00
2023-04-20T12:40:42.469Z,6.80
2023-04-20T12:43:10.446Z,6.90
2023-04-20T12:45:38.327Z,7.10
2023-04-20T12:48:06.580Z,7.30
2023-04-20T12:50:34.381Z,7.20
2023-04-20T12:53:02.311Z,6.90
2023-04-20T12:55:31.653Z,6.80
2023-04-20T12:57:59.400Z,6.70
2023-04-20T13:00:27.346Z,6.80
2023-04-20T13:02:55.295Z,6.80
2023-04-20T13:05:23.314Z,6.60
2023-04-20T13:07:51.388Z,6.60
2023-04-20T13:10:19.234Z,6.70
2023-04-20T13:12:48.340Z,6.70
2023-04-20T13:15:28.334Z,6.80
2023-04-20T13:18:06.583Z,6.80
2023-04-20T13:20:34.546Z,6.90
2023-04-20T13:23:03.746Z,6.90
2023-04-20T13:25:33.383Z,6.90
2023-04-20T13:28:04.890Z,6.70
2023-04-20T13:30:32.899Z,6.80
2023-04-20T13:33:00.731Z,6.70
2023-04-20T13:35:28.685Z,6.70
2023-04-20T13:37:56.583Z,6.80
2023-04-20T13:40:24.367Z,7.00
2023-04-20T13:42:52.151Z,7.00
2023-04-20T13:45:21.365Z,6.80
2023-04-20T13:47:49.174Z,6.90
2023-04-20T13:50:17.005Z,7.10
2023-04-20T13:52:44.789Z,7.00
2023-04-20T13:55:12.701Z,7.10
2023-04-20T13:57:40.783Z,6.90
2023-04-20T14:00:10.101Z,7.00
2023-04-20T14:02:39.840Z,6.80
2023-04-20T14:05:09.294Z,6.90
2023-04-20T14:07:37.112Z,6.80
2023-04-20T14:10:05.540Z,6.90
2023-04-20T14:12:34.064Z,7.00
2023-04-20T14:15:02.289Z,7.10
2023-04-20T14:17:30.172Z,7.10
2023-04-20T14:19:59.539Z,7.00
2023-04-20T14:22:34.140Z,7.00
2023-04-20T14:25:01.921Z,7.00
2023-04-20T14:27:29.724Z,7.00
2023-04-20T14:29:57.575Z,7.10
2023-04-20T14:32:25.385Z,7.10
2023-04-20T14:34:53.222Z,7.10
2023-04-20T14:37:24.764Z,7.10
2023-04-20T14:39:52.511Z,7.10
2023-04-20T14:42:20.691Z,7.10
2023-04-20T14:44:49.425Z,7.20
2023-04-20T14:47:17.589Z,7.20
2023-04-20T14:49:45.473Z,7.30
2023-04-20T14:52:13.223Z,7.30
2023-04-20T14:54:42.386Z,7.30
2023-04-20T14:57:10.158Z,7.40
2023-04-20T14:59:41.173Z,7.40
2023-04-20T15:02:09.124Z,7.40
2023-04-20T15:04:37.277Z,7.40
2023-04-20T15:07:05.232Z,7.50
2023-04-20T15:09:33.570Z,7.50
2023-04-20T15:12:02.894Z,7.40
2023-04-20T15:14:30.859Z,7.40
2023-04-20T15:16:58.781Z,7.60
2023-04-20T15:19:26.672Z,7.50
2023-04-20T15:21:54.557Z,7.70
2023-04-20T15:24:22.332Z,7.80
2023-04-20T15:26:50.231Z,7.80
2023-04-20T15:29:20.006Z,7.80
2023-04-20T15:31:47.904Z,7.70
2023-04-20T15:34:17.088Z,7.80
2023-04-20T15:36:45.225Z,7.70
2023-04-20T15:39:13.334Z,7.70
2023-04-20T15:41:41.174Z,7.70
2023-04-20T15:44:09.152Z,7.80
2023-04-20T15:46:39.374Z,7.80
2023-04-20T15:49:07.268Z,7.80
2023-04-20T15:51:35.255Z,7.90
2023-04-20T15:54:03.063Z,8.00
2023-04-20T15:56:31.775Z,8.00
2023-04-20T15:58:59.534Z,7.90
2023-04-20T16:01:33.331Z,7.80
2023-04-20T16:04:02.816Z,7.80
2023-04-20T16:06:31.603Z,7.70
2023-04-20T16:09:00.574Z,7.80
2023-04-20T16:11:28.427Z,7.80
2023-04-20T16:13:59.249Z,7.70
2023-04-20T16:16:27.223Z,7.80
2023-04-20T16:18:58.344Z,7.80
2023-04-20T16:21:27.593Z,7.90
2023-04-20T16:23:56.555Z,7.90
2023-04-20T16:26:25.527Z,7.80
2023-04-20T16:28:53.400Z,7.80
2023-04-20T16:31:21.442Z,7.90
2023-04-20T16:33:49.259Z,7.80
2023-04-20T16:36:17.156Z,7.80
2023-04-20T16:38:46.454Z,7.80
2023-04-20T16:41:14.392Z,7.80
2023-04-20T16:43:42.228Z,7.70
2023-04-20T16:46:13.302Z,7.70
2023-04-20T16:48:41.102Z,7.80
2023-04-20T16:51:08.986Z,7.80
2023-04-20T16:53:36.791Z,7.80
2023-04-20T16:56:06.341Z,7.80
2023-04-20T16:58:34.154Z,7.70
2023-04-20T17:01:01.929Z,7.80
2023-04-20T17:03:30.320Z,7.70
2023-04-20T17:05:58.294Z,7.70
2023-04-20T17:08:27.338Z,7.70
2023-04-20T17:10:55.474Z,7.70
2023-04-20T17:13:24.531Z,7.70
2023-04-20T17:15:52.284Z,7.70
2023-04-20T17:18:20.624Z,7.60
2023-04-20T17:20:48.910Z,7.60
2023-04-20T17:23:17.775Z,7.60
2023-04-20T17:25:47.260Z,7.70
2023-04-20T17:28:15.596Z,7.70
2023-04-20T17:30:44.771Z,7.60
2023-04-20T17:33:13.070Z,7.60
2023-04-20T17:35:40.936Z,7.60
2023-04-20T17:38:08.712Z,7.60
2023-04-20T17:40:36.502Z,7.60
2023-04-20T17:43:04.331Z,7.60
2023-04-20T17:45:32.187Z,7.60
2023-04-20T17:48:01.395Z,7.60
2023-04-20T17:50:29.222Z,7.60
2023-04-20T17:52:57.277Z,7.60
2023-04-20T17:55:25.442Z,7.60
2023-04-20T17:57:53.166Z,7.60
2023-04-20T18:00:23.389Z,7.60
2023-04-20T18:02:51.307Z,7.60
2023-04-20T18:05:20.585Z,7.50
2023-04-20T18:07:48.568Z,7.60
2023-04-20T18:10:16.510Z,7.60
2023-04-20T18:12:44.912Z,7.70
2023-04-20T18:15:12.976Z,7.70
2023-04-20T18:17:40.845Z,7.60
2023-04-20T18:20:09.466Z,7.60
2023-04-20T18:22:39.345Z,7.60
2023-04-20T18:25:07.662Z,7.60
2023-04-20T18:27:35.555Z,7.60
2023-04-20T18:30:03.408Z,7.60
2023-04-20T18:32:32.911Z,7.60
2023-04-20T18:35:00.854Z,7.60
2023-04-20T18:37:28.693Z,7.60
2023-04-20T18:39:58.571Z,7.70
2023-04-20T18:42:26.779Z,7.80
2023-04-20T18:44:55.797Z,7.70
2023-04-20T18:47:24.498Z,8.00
2023-04-20T18:49:53.155Z,8.10
2023-04-20T18:52:21.924Z,8.20
2023-04-20T18:54:49.801Z,8.20
2023-04-20T18:57:21.495Z,8.20
2023-04-20T18:59:49.259Z,8.10
2023-04-20T19:02:17.494Z,8.10
2023-04-20T19:04:45.458Z,8.10
2023-04-20T19:07:13.333Z,8.10
2023-04-20T19:09:41.076Z,7.90
2023-04-20T19:12:09.021Z,8.00
2023-04-20T19:14:38.182Z,8.00
2023-04-20T19:17:07.906Z,8.10
2023-04-20T19:19:36.016Z,8.10
2023-04-20T19:22:04.402Z,8.20
2023-04-20T19:24:32.747Z,8.20
2023-04-20T19:27:00.672Z,8.10
2023-04-20T19:29:29.066Z,8.10
2023-04-20T19:31:58.174Z,8.00
2023-04-20T19:34:26.119Z,8.10
2023-04-20T19:36:54.075Z,8.10
2023-04-20T19:39:21.893Z,8.20
2023-04-20T19:41:49.906Z,8.00
2023-04-20T19:44:17.929Z,8.00
2023-04-20T19:46:45.829Z,8.00
2023-04-20T19:49:15.006Z,8.10
2023-04-20T19:51:43.079Z,8.10
2023-04-20T19:54:11.924Z,8.10
2023-04-20T19:56:39.699Z,8.00
2023-04-20T19:59:07.532Z,8.00
2023-04-20T20:01:35.376Z,8.00
2023-04-20T20:04:03.382Z,7.90
2023-04-20T20:06:33.296Z,7.90
2023-04-20T20:09:01.843Z,7.90
2023-04-20T20:11:29.697Z,8.00
2023-04-20T20:13:57.521Z,8.00
2023-04-20T20:16:28.020Z,8.00
2023-04-20T20:18:55.952Z,8.00
2023-04-20T20:21:23.760Z,8.00
2023-04-20T20:23:52.885Z,8.10
2023-04-20T20:26:20.680Z,7.90
2023-04-20T20:28:51.645Z,7.60
2023-04-20T20:31:19.485Z,7.80
2023-04-20T20:33:47.508Z,7.80
2023-04-20T20:36:17.766Z,7.80
2023-04-20T20:38:45.867Z,7.80
2023-04-20T20:41:16.169Z,7.70
2023-04-20T20:43:43.955Z,7.70
2023-04-20T20:46:11.752Z,7.70
2023-04-20T20:48:39.713Z,7.50
2023-04-20T20:51:07.452Z,7.80
2023-04-20T20:53:35.231Z,7.90
2023-04-20T20:56:02.958Z,7.90
2023-04-20T20:58:32.109Z,7.90
2023-04-20T21:01:00.213Z,7.80
2023-04-20T21:03:28.153Z,7.70
2023-04-20T21:05:56.238Z,7.60
2023-04-20T21:08:24.010Z,7.80
2023-04-20T21:10:51.774Z,7.80
2023-04-20T21:13:21.596Z,7.80
2023-04-20T21:15:50.721Z,7.70
2023-04-20T21:18:20.732Z,7.80
2023-04-20T21:20:48.520Z,7.80
2023-04-20T21:23:16.370Z,7.80
2023-04-20T21:25:44.169Z,7.80
2023-04-20T21:28:11.923Z,7.80
2023-04-20T21:30:39.700Z,7.80
2023-04-20T21:33:08.891Z,7.70
2023-04-20T21:35:36.761Z,7.70
2023-04-20T21:38:04.669Z,7.70
2023-04-20T21:40:34.131Z,7.70
2023-04-20T21:43:01.924Z,7.80
2023-04-20T21:45:29.686Z,7.70
2023-04-20T21:47:57.533Z,7.70
2023-04-20T21:50:27.361Z,7.70
2023-04-20T21:52:55.275Z,7.80
2023-04-20T21:55:23.178Z,7.70
2023-04-20T21:57:50.898Z,7.70
2023-04-20T22:00:20.867Z,7.60
2023-04-20T22:02:50.245Z,7.70
2023-04-20T22:05:18.506Z,7.70
2023-04-20T22:07:47.663Z,7.70
2023-04-20T22:10:15.845Z,7.70
2023-04-20T22:12:43.635Z,7.50
2023-04-20T22:15:13.935Z,7.60
2023-04-20T22:17:45.131Z,7.70
2023-04-20T22:20:14.680Z,7.70
2023-04-20T22:22:42.772Z,7.90
2023-04-20T22:25:12.404Z,7.70
2023-04-20T22:27:40.173Z,7.70
2023-04-20T22:30:09.498Z,7.70
2023-04-20T22:32:37.569Z,7.70
2023-04-20T22:35:06.517Z,7.70
2023-04-20T22:37:34.569Z,7.60
2023-04-20T22:40:03.959Z,7.70
2023-04-20T22:42:34.656Z,7.60
2023-04-20T22:45:02.676Z,7.50
2023-04-20T22:47:30.524Z,7.60
2023-04-20T22:49:58.329Z,7.50
2023-04-20T22:52:26.405Z,7.40
2023-04-20T22:54:54.212Z,7.50
2023-04-20T22:57:22.501Z,7.50
2023-04-20T23:02:27.538Z,7.50
2023-04-20T23:04:55.769Z,7.50
2023-04-20T23:07:23.737Z,7.50
2023-04-20T23:09:51.917Z,7.50
2023-04-20T23:12:20.613Z,7.60
2023-04-20T23:14:48.411Z,7.50
2023-04-20T23:17:16.155Z,7.50
2023-04-20T23:19:45.804Z,7.50
2023-04-20T23:22:13.620Z,7.50
2023-04-20T23:24:41.397Z,7.50
2023-04-20T23:27:09.256Z,7.50
2023-04-20T23:29:37.048Z,7.50
2023-04-20T23:32:05.307Z,7.50
2023-04-20T23:34:33.104Z,7.50
2023-04-20T23:37:02.216Z,7.60
2023-04-20T23:39:30.020Z,7.50
2023-04-20T23:41:57.867Z,7.50
2023-04-20T23:44:25.787Z,7.50
2023-04-20T23:46:53.505Z,7.50
2023-04-20T23:49:21.433Z,7.50
2023-04-20T23:51:49.366Z,7.50
2023-04-20T23:54:18.664Z,7.50
2023-04-20T23:56:46.427Z,7.50
2023-04-20T23:59:14.346Z,7.50
